createdAt,value
2018-11-03T00:01:00.232Z,9.50
2018-11-03T00:04:03.325Z,9.50
2018-11-03T00:07:06.877Z,9.50
2018-11-03T00:10:09.860Z,9.50
2018-11-03T00:13:12.691Z,9.40
2018-11-03T00:16:15.556Z,9.50
2018-11-03T00:19:18.293Z,9.40
2018-11-03T00:22:21.103Z,9.50
2018-11-03T00:25:23.928Z,9.50
2018-11-03T00:28:27.669Z,9.40
2018-11-03T00:31:30.485Z,9.40
2018-11-03T00:34:33.227Z,9.40
2018-11-03T00:37:36.646Z,9.40
2018-11-03T00:40:39.432Z,9.30
2018-11-03T00:43:43.333Z,9.30
2018-11-03T00:46:46.164Z,9.20
2018-11-03T00:49:48.978Z,9.20
2018-11-03T00:52:51.929Z,9.10
2018-11-03T00:55:54.733Z,9.10
2018-11-03T00:58:57.919Z,9.10
2018-11-03T01:02:00.739Z,9.00
2018-11-03T01:05:03.771Z,9.00
2018-11-03T01:08:06.624Z,8.90
2018-11-03T01:11:09.523Z,8.90
2018-11-03T01:14:12.330Z,8.90
2018-11-03T01:17:15.135Z,8.90
2018-11-03T01:20:18.185Z,8.80
2018-11-03T01:23:21.051Z,8.80
2018-11-03T01:26:24.858Z,8.70
2018-11-03T01:29:27.716Z,8.70
2018-11-03T01:32:30.486Z,8.70
2018-11-03T01:35:33.297Z,8.60
2018-11-03T01:38:36.182Z,8.60
2018-11-03T01:41:39.113Z,8.60
2018-11-03T01:44:42.049Z,8.60
2018-11-03T01:47:45.805Z,8.50
2018-11-03T01:50:48.537Z,8.50
2018-11-03T01:53:51.282Z,8.50
2018-11-03T01:56:54.658Z,8.50
2018-11-03T01:59:57.573Z,8.40
2018-11-03T02:03:00.434Z,8.50
2018-11-03T02:06:04.259Z,8.40
2018-11-03T02:09:08.000Z,8.50
2018-11-03T02:12:10.929Z,8.50
2018-11-03T02:15:13.707Z,8.50
2018-11-03T02:18:16.443Z,8.50
2018-11-03T02:21:19.855Z,8.50
2018-11-03T02:24:23.621Z,8.40
2018-11-03T02:27:26.473Z,8.40
2018-11-03T02:30:29.193Z,8.50
2018-11-03T02:33:32.199Z,8.50
2018-11-03T02:36:35.028Z,8.50
2018-11-03T02:39:37.810Z,8.50
2018-11-03T02:42:41.185Z,8.50
2018-11-03T02:45:44.058Z,8.60
2018-11-03T02:48:46.949Z,8.60
2018-11-03T02:51:50.491Z,8.60
2018-11-03T02:54:53.398Z,8.70
2018-11-03T02:57:56.317Z,8.70
2018-11-03T03:00:58.975Z,8.70
2018-11-03T03:04:01.925Z,8.60
2018-11-03T03:07:04.830Z,8.60
2018-11-03T03:10:13.691Z,8.60
2018-11-03T03:16:37.998Z,8.60
2018-11-03T03:19:42.369Z,8.60
2018-11-03T03:23:01.891Z,8.60
2018-11-03T03:26:05.586Z,8.60
2018-11-03T03:29:14.958Z,8.60
2018-11-03T03:35:51.265Z,8.60
2018-11-03T03:38:54.313Z,8.60
2018-11-03T03:41:57.273Z,8.60
2018-11-03T03:45:01.211Z,8.60
2018-11-03T03:48:07.648Z,8.60
2018-11-03T03:51:11.218Z,8.60
2018-11-03T03:54:14.731Z,8.60
2018-11-03T03:57:17.435Z,8.60
2018-11-03T04:00:24.801Z,8.60
2018-11-03T04:03:27.489Z,8.60
2018-11-03T04:06:30.211Z,8.60
2018-11-03T04:09:33.213Z,8.50
2018-11-03T04:12:36.012Z,8.40
2018-11-03T04:15:39.963Z,8.40
2018-11-03T04:18:49.756Z,8.40
2018-11-03T04:21:53.240Z,8.40
2018-11-03T04:25:00.036Z,8.40
2018-11-03T04:28:03.382Z,8.40
2018-11-03T04:31:12.596Z,8.30
2018-11-03T04:34:15.340Z,8.20
2018-11-03T04:37:20.976Z,8.20
2018-11-03T04:40:23.783Z,8.20
2018-11-03T04:43:27.355Z,8.10
2018-11-03T04:46:29.999Z,8.20
2018-11-03T04:49:32.841Z,8.20
2018-11-03T04:52:35.753Z,8.20
2018-11-03T04:55:39.130Z,8.10
2018-11-03T04:58:41.848Z,8.10
2018-11-03T05:01:45.463Z,8.20
2018-11-03T05:04:48.676Z,8.10
2018-11-03T05:07:55.559Z,8.10
2018-11-03T05:11:00.019Z,8.20
2018-11-03T05:14:03.852Z,8.20
2018-11-03T05:17:09.549Z,8.20
2018-11-03T05:20:12.277Z,8.30
2018-11-03T05:23:15.177Z,8.40
2018-11-03T05:26:18.062Z,8.40
2018-11-03T05:29:21.901Z,8.40
2018-11-03T05:32:25.838Z,8.50
2018-11-03T05:35:28.574Z,8.50
2018-11-03T05:38:32.218Z,8.50
2018-11-03T05:41:35.267Z,8.60
2018-11-03T05:44:39.968Z,8.60
2018-11-03T05:48:13.029Z,8.60
2018-11-03T05:51:16.192Z,8.70
2018-11-03T05:54:19.685Z,8.70
2018-11-03T05:57:23.529Z,8.60
2018-11-03T06:00:27.633Z,8.60
2018-11-03T06:03:30.405Z,8.60
2018-11-03T06:06:33.163Z,8.60
2018-11-03T06:09:35.878Z,8.50
2018-11-03T06:12:39.182Z,8.50
2018-11-03T06:15:57.370Z,8.50
2018-11-03T06:19:13.249Z,8.40
2018-11-03T06:22:17.112Z,8.40
2018-11-03T06:25:21.180Z,8.50
2018-11-03T06:28:25.248Z,8.50
2018-11-03T06:31:30.448Z,8.50
2018-11-03T06:34:34.550Z,8.50
2018-11-03T06:42:04.039Z,8.50
2018-11-03T06:45:11.142Z,8.50
2018-11-03T06:48:14.714Z,8.50
2018-11-03T06:51:30.936Z,8.50
2018-11-03T06:54:35.281Z,8.50
2018-11-03T06:57:39.291Z,8.60
2018-11-03T07:00:44.301Z,8.60
2018-11-03T07:03:53.443Z,8.50
2018-11-03T07:06:56.445Z,8.50
2018-11-03T07:10:15.359Z,8.50
2018-11-03T07:13:21.623Z,8.60
2018-11-03T07:16:24.572Z,8.60
2018-11-03T07:19:27.401Z,8.60
2018-11-03T07:22:30.368Z,8.60
2018-11-03T07:25:35.654Z,8.60
2018-11-03T07:28:56.549Z,8.60
2018-11-03T07:38:56.685Z,8.60
2018-11-03T07:42:07.417Z,8.70
2018-11-03T07:45:16.832Z,8.70
2018-11-03T07:48:21.079Z,8.80
2018-11-03T07:51:36.328Z,8.80
2018-11-03T07:54:50.172Z,8.90
2018-11-03T07:58:33.771Z,9.10
2018-11-03T08:08:44.337Z,9.50
2018-11-03T08:11:50.671Z,9.60
2018-11-03T08:14:56.884Z,9.60
2018-11-03T08:18:05.969Z,9.50
2018-11-03T08:23:12.867Z,9.40
2018-11-03T08:26:16.822Z,9.40
2018-11-03T08:29:21.505Z,9.50
2018-11-03T08:32:27.004Z,9.60
2018-11-03T08:35:36.217Z,9.60
2018-11-03T08:38:45.011Z,9.50
2018-11-03T08:41:49.146Z,9.40
2018-11-03T08:44:59.735Z,9.40
2018-11-03T08:48:10.802Z,9.40
2018-11-03T09:16:02.482Z,9.40
2018-11-03T09:19:06.127Z,9.70
2018-11-03T09:22:13.749Z,9.70
2018-11-03T09:28:31.741Z,9.60
2018-11-03T09:40:23.073Z,9.60
2018-11-03T09:46:46.976Z,10.10
2018-11-03T09:50:10.970Z,10.20
2018-11-03T09:53:17.462Z,10.10
2018-11-03T10:06:17.166Z,10.30
2018-11-03T10:09:33.690Z,10.70
2018-11-03T10:12:36.520Z,10.70
2018-11-03T10:18:57.984Z,10.80
2018-11-03T10:22:02.856Z,11.10
2018-11-03T10:25:14.312Z,11.30
2018-11-03T10:28:17.263Z,11.40
2018-11-03T10:31:20.427Z,11.40
2018-11-03T10:34:23.642Z,11.30
2018-11-03T10:37:28.882Z,11.30
2018-11-03T10:40:32.317Z,11.30
2018-11-03T10:43:35.195Z,11.20
2018-11-03T10:46:39.248Z,11.30
2018-11-03T10:49:44.953Z,11.40
2018-11-03T10:52:52.308Z,11.40
2018-11-03T10:55:55.517Z,11.40
2018-11-03T10:58:58.366Z,11.40
2018-11-03T11:02:07.043Z,11.40
2018-11-03T11:05:16.864Z,11.30
2018-11-03T11:08:25.261Z,11.30
2018-11-03T11:11:44.313Z,11.30
2018-11-03T11:14:49.709Z,11.30
2018-11-03T11:17:53.217Z,11.20
2018-11-03T11:20:59.384Z,11.20
2018-11-03T11:24:05.137Z,11.20
2018-11-03T11:27:13.623Z,11.30
2018-11-03T11:30:20.827Z,11.30
2018-11-03T11:33:25.018Z,11.40
2018-11-03T11:39:50.735Z,11.80
2018-11-03T11:43:07.753Z,12.20
2018-11-03T11:46:11.726Z,12.50
2018-11-03T11:49:14.885Z,12.20
2018-11-03T11:52:23.632Z,12.10
2018-11-03T11:55:33.676Z,12.20
2018-11-03T11:58:45.267Z,12.60
2018-11-03T12:01:53.377Z,13.00
2018-11-03T12:04:56.641Z,13.40
2018-11-03T12:07:59.542Z,13.60
2018-11-03T12:11:04.388Z,13.70
2018-11-03T12:14:11.778Z,13.80
2018-11-03T12:17:14.876Z,14.00
2018-11-03T12:20:17.814Z,14.30
2018-11-03T12:23:22.399Z,14.20
2018-11-03T12:26:25.274Z,13.40
2018-11-03T12:32:51.018Z,12.80
2018-11-03T12:35:54.196Z,12.70
2018-11-03T12:38:57.213Z,12.90
2018-11-03T12:42:00.079Z,13.30
2018-11-03T12:45:02.952Z,13.50
2018-11-03T12:48:06.475Z,13.80
2018-11-03T12:51:10.321Z,13.80
2018-11-03T12:54:13.363Z,14.20
2018-11-03T12:57:16.366Z,14.40
2018-11-03T13:00:19.314Z,14.60
2018-11-03T13:03:26.448Z,14.60
2018-11-03T13:06:44.355Z,15.10
2018-11-03T13:09:54.237Z,15.00
2018-11-03T13:16:34.449Z,14.70
2018-11-03T13:19:41.889Z,14.40
2018-11-03T13:22:45.346Z,14.00
2018-11-03T13:26:04.226Z,13.70
2018-11-03T13:32:20.644Z,12.70
2018-11-03T13:35:24.751Z,12.30
2018-11-03T13:38:28.438Z,12.10
2018-11-03T13:41:32.429Z,11.90
2018-11-03T13:44:36.953Z,11.70
2018-11-03T13:47:40.381Z,11.60
2018-11-03T13:57:29.047Z,11.10
2018-11-03T14:00:34.195Z,11.10
2018-11-03T14:03:38.505Z,11.00
2018-11-03T14:06:44.600Z,11.00
2018-11-03T14:09:48.096Z,11.30
2018-11-03T14:12:56.797Z,11.50
2018-11-03T14:16:09.715Z,11.50
2018-11-03T14:19:28.336Z,11.40
2018-11-03T14:22:37.413Z,11.00
2018-11-03T14:25:44.838Z,10.70
2018-11-03T14:28:52.086Z,10.50
2018-11-03T14:31:56.045Z,10.30
2018-11-03T14:35:01.270Z,10.20
2018-11-03T14:38:18.172Z,10.20
2018-11-03T14:41:21.929Z,10.10
2018-11-03T14:44:31.351Z,10.10
2018-11-03T14:47:40.294Z,10.00
2018-11-03T14:50:44.783Z,9.90
2018-11-03T14:53:47.889Z,9.80
2018-11-03T14:56:51.415Z,9.70
2018-11-03T14:59:57.333Z,9.60
2018-11-03T15:03:11.615Z,9.60
2018-11-03T15:06:14.508Z,9.50
2018-11-03T15:09:17.478Z,9.40
2018-11-03T15:12:20.381Z,9.30
2018-11-03T15:15:23.307Z,9.30
2018-11-03T15:18:31.689Z,9.20
2018-11-03T15:21:46.691Z,9.20
2018-11-03T15:24:51.049Z,9.10
2018-11-03T15:27:54.359Z,9.00
2018-11-03T15:30:58.158Z,9.00
2018-11-03T15:34:00.954Z,9.00
2018-11-03T15:37:04.276Z,9.00
2018-11-03T15:40:10.179Z,9.00
2018-11-03T15:43:13.092Z,8.90
2018-11-03T15:46:15.926Z,8.90
2018-11-03T15:49:18.664Z,8.80
2018-11-03T15:52:22.567Z,8.80
2018-11-03T15:55:25.377Z,8.80
2018-11-03T15:58:28.150Z,8.80
2018-11-03T16:01:31.095Z,8.80
2018-11-03T16:04:33.995Z,8.70
2018-11-03T16:07:38.069Z,8.70
2018-11-03T16:10:41.164Z,8.70
2018-11-03T16:13:53.266Z,8.70
2018-11-03T16:16:57.305Z,8.70
2018-11-03T16:20:00.526Z,8.70
2018-11-03T16:23:08.882Z,8.70
2018-11-03T16:29:44.481Z,8.70
2018-11-03T16:32:48.771Z,8.70
2018-11-03T16:35:52.683Z,8.70
2018-11-03T16:39:00.016Z,8.70
2018-11-03T16:42:03.157Z,8.70
2018-11-03T16:45:10.588Z,8.70
2018-11-03T16:48:14.540Z,8.70
2018-11-03T16:51:20.614Z,8.80
2018-11-03T16:54:26.417Z,8.80
2018-11-03T16:57:30.635Z,8.80
2018-11-03T17:00:33.793Z,8.90
2018-11-03T17:03:36.733Z,8.80
2018-11-03T17:06:40.289Z,8.90
2018-11-03T17:09:43.544Z,8.90
2018-11-03T17:12:47.088Z,8.90
2018-11-03T17:15:52.173Z,8.90
2018-11-03T17:18:55.203Z,8.90
2018-11-03T17:21:58.947Z,8.90
2018-11-03T17:25:01.891Z,9.00
2018-11-03T17:28:05.931Z,8.90
2018-11-03T17:31:08.787Z,9.00
2018-11-03T17:34:19.671Z,9.00
2018-11-03T17:37:22.668Z,9.10
2018-11-03T17:40:27.163Z,9.10
2018-11-03T17:43:30.017Z,9.10
2018-11-03T17:46:45.917Z,9.20
2018-11-03T17:50:01.860Z,9.20
2018-11-03T17:53:07.653Z,9.20
2018-11-03T17:56:16.912Z,9.30
2018-11-03T18:06:47.750Z,9.40
2018-11-03T18:10:15.573Z,9.50
2018-11-03T18:13:24.916Z,9.50
2018-11-03T18:16:31.535Z,9.60
2018-11-03T18:19:42.440Z,9.60
2018-11-03T18:22:49.053Z,9.60
2018-11-03T18:26:05.372Z,9.60
2018-11-03T18:29:15.988Z,9.70
2018-11-03T18:32:38.098Z,9.70
2018-11-03T18:35:56.873Z,9.60
2018-11-03T18:39:09.055Z,9.60
2018-11-03T18:42:22.043Z,9.60
2018-11-03T18:45:39.453Z,9.60
2018-11-03T18:48:42.409Z,9.60
2018-11-03T18:51:45.415Z,9.60
2018-11-03T18:54:48.629Z,9.50
2018-11-03T18:57:51.645Z,9.50
2018-11-03T19:00:54.978Z,9.50
2018-11-03T19:03:58.500Z,9.50
2018-11-03T19:07:01.726Z,9.40
2018-11-03T19:10:05.966Z,9.40
2018-11-03T19:13:09.177Z,9.40
2018-11-03T19:16:13.185Z,9.40
2018-11-03T19:19:20.139Z,9.40
2018-11-03T19:22:29.463Z,9.30
2018-11-03T19:25:39.543Z,9.30
2018-11-03T19:28:43.254Z,9.30
2018-11-03T19:31:46.223Z,9.30
2018-11-03T19:34:49.855Z,9.30
2018-11-03T19:37:53.593Z,9.30
2018-11-03T19:40:57.182Z,9.30
2018-11-03T19:44:00.387Z,9.30
2018-11-03T19:47:03.709Z,9.40
2018-11-03T19:50:07.645Z,9.40
2018-11-03T19:53:11.495Z,9.40
2018-11-03T19:56:14.309Z,9.40
2018-11-03T19:59:17.413Z,9.40
2018-11-03T20:02:20.794Z,9.40
2018-11-03T20:05:23.547Z,9.40
2018-11-03T20:08:26.581Z,9.40
2018-11-03T20:11:29.363Z,9.50
2018-11-03T20:14:32.954Z,9.50
2018-11-03T20:17:35.826Z,9.50
2018-11-03T20:20:39.725Z,9.50
2018-11-03T20:23:42.911Z,9.40
2018-11-03T20:26:54.864Z,9.40
2018-11-03T20:29:59.248Z,9.50
2018-11-03T20:33:03.039Z,9.40
2018-11-03T20:36:06.963Z,9.40
2018-11-03T20:39:10.291Z,9.30
2018-11-03T20:42:13.097Z,9.30
2018-11-03T20:45:16.802Z,9.30
2018-11-03T20:48:21.500Z,9.20
2018-11-03T20:51:24.292Z,9.20
2018-11-03T20:54:27.005Z,9.10
2018-11-03T20:57:31.103Z,9.10
2018-11-03T21:00:33.917Z,9.10
2018-11-03T21:03:36.697Z,9.10
2018-11-03T21:06:39.392Z,9.10
2018-11-03T21:09:42.987Z,9.00
2018-11-03T21:12:45.777Z,9.00
2018-11-03T21:15:48.534Z,9.00
2018-11-03T21:18:51.410Z,9.10
2018-11-03T21:21:54.162Z,9.00
2018-11-03T21:24:57.025Z,9.10
2018-11-03T21:27:59.871Z,9.10
2018-11-03T21:31:02.678Z,9.00
2018-11-03T21:34:05.530Z,9.00
2018-11-03T21:37:08.418Z,9.00
2018-11-03T21:40:11.144Z,9.00
2018-11-03T21:43:13.902Z,8.90
2018-11-03T21:46:16.618Z,8.90
2018-11-03T21:49:19.500Z,8.90
2018-11-03T21:52:22.184Z,8.90
2018-11-03T21:55:24.923Z,8.80
2018-11-03T21:58:27.823Z,8.80
2018-11-03T22:01:30.537Z,8.80
2018-11-03T22:04:33.294Z,8.80
2018-11-03T22:07:38.749Z,8.80
2018-11-03T22:10:41.497Z,8.70
2018-11-03T22:13:44.868Z,8.70
2018-11-03T22:16:47.747Z,8.80
2018-11-03T22:19:50.496Z,8.80
2018-11-03T22:22:53.187Z,8.80
2018-11-03T22:25:56.995Z,8.80
2018-11-03T22:29:00.298Z,8.80
2018-11-03T22:32:02.993Z,8.80
2018-11-03T22:35:06.068Z,8.80
2018-11-03T22:38:08.697Z,8.80
2018-11-03T22:41:11.354Z,8.70
2018-11-03T22:44:14.763Z,8.70
2018-11-03T22:47:17.348Z,8.70
2018-11-03T22:50:20.583Z,8.70
2018-11-03T22:53:23.281Z,8.70
2018-11-03T22:56:25.883Z,8.60
2018-11-03T22:59:29.984Z,8.60
2018-11-03T23:02:32.527Z,8.60
2018-11-03T23:05:35.234Z,8.60
2018-11-03T23:08:38.729Z,8.50
2018-11-03T23:11:41.381Z,8.60
2018-11-03T23:14:44.049Z,8.50
2018-11-03T23:17:46.714Z,8.50
2018-11-03T23:20:49.419Z,8.50
2018-11-03T23:23:53.746Z,8.40
2018-11-03T23:26:57.057Z,8.40
2018-11-03T23:29:59.837Z,8.40
2018-11-03T23:33:02.517Z,8.50
2018-11-03T23:36:05.180Z,8.50
2018-11-03T23:39:09.197Z,8.50
2018-11-03T23:42:11.880Z,8.50
2018-11-03T23:45:14.572Z,8.50
2018-11-03T23:48:17.978Z,8.50
2018-11-03T23:51:20.997Z,8.50
2018-11-03T23:54:23.735Z,8.50
2018-11-03T23:57:26.443Z,8.50
